Change the Weather History Date:

Wednesday, March 6, 2013

  Actual Average (KDLZ) Record (KDLZ)
Temperature  
Mean Temperature 32 °F -  
Max Temperature 35 °F 45 °F 77 °F (1983)
Min Temperature 29 °F 24 °F -3 °F (1978)
Degree Days  
Heating Degree Days 33    
Moisture  
Dew Point 28 °F    
Average Humidity 83    
Maximum Humidity 95    
Minimum Humidity 76    
Precipitation  
Precipitation 0.05 in - - ()
Sea Level Pressure  
Sea Level Pressure 29.95 in    
Wind  
Wind Speed 13 mph (North)    
Max Wind Speed 20 mph    
Max Gust Speed 26 mph    
Visibility 8 miles    
Events      
Averages and records for this station are not official NWS values.
T = Trace of Precipitation, MM = Missing Value Source: NWS Daily Summary

Daily Weather History Graph

Daily Weather History Graph

Search for Another Location

Airport or City:

Trip Planner

Search our weather history database for the weather conditions in past years. The results will help you decide how hot, cold, wet, or windy it might be!

Date:

Astronomy

Mar. 06, 2013 Rise Set
Actual Time 6:58 AM EST 6:30 PM EST
Civil Twilight 6:31 AM EST 6:58 PM EST
Nautical Twilight 6:00 AM EST 7:29 PM EST
Astronomical Twilight 5:28 AM EST 8:01 PM EST
Moon 3:07 AM EST (3/6) 1:11 PM EST (3/6)
Length of Visible Light 12h 26m
Length of Day
11h 32m
Waning Crescent, 30% of the Moon is Illuminated
Mar 6
Waning Crescent
Mar 11
New
Mar 19
First Quarter
Mar 27
Full
Apr 3
Last Quarter

Hourly Weather History & Observations

Time (EST) Temp. Windchill Dew Point Humidity Pressure Visibility Wind Dir Wind Speed Gust Speed Precip Events Conditions
12:14 AM 31.1 °F 20.9 °F 29.8 °F 95% 29.58 in 1.2 mi NNE 13.8 mph 19.6 mph 0.01 in   Overcast
12:34 AM 30.6 °F 19.8 °F 29.1 °F 94% 29.58 in 1.2 mi NNE 15.0 mph 21.9 mph 0.02 in   Overcast
12:54 AM 30.2 °F 18.9 °F 28.8 °F 94% 29.58 in 1.5 mi NNE 16.1 mph 21.9 mph 0.03 in   Overcast
1:14 AM 30.0 °F 17.9 °F 28.4 °F 94% 29.58 in 1.8 mi NNE 18.4 mph 25.3 mph N/A   Overcast
1:34 AM 30.0 °F 19.1 °F 28.4 °F 94% 29.59 in 2.0 mi NNE 15.0 mph 23.0 mph 0.01 in   Overcast
1:54 AM 30.2 °F 18.5 °F 28.4 °F 93% 29.60 in 2.0 mi NNE 17.3 mph 23.0 mph 0.01 in   Overcast
2:14 AM 30.2 °F 19.3 °F 28.4 °F 93% 29.61 in 2.5 mi NNE 15.0 mph 19.6 mph N/A   Overcast
2:34 AM 30.0 °F 18.3 °F 28.2 °F 93% 29.61 in 2.5 mi NNE 17.3 mph 21.9 mph 0.01 in   Overcast
2:54 AM 29.8 °F 18.4 °F 27.9 °F 92% 29.62 in 2.0 mi NNE 16.1 mph - 0.01 in   Overcast
3:14 AM 30.0 °F 18.7 °F 27.9 °F 92% 29.63 in 3.0 mi NNE 16.1 mph 24.2 mph N/A   Overcast
3:34 AM 30.0 °F 17.5 °F 27.5 °F 90% 29.63 in 4.0 mi NNE 19.6 mph 24.2 mph N/A   Overcast
3:54 AM 30.2 °F 18.5 °F 27.5 °F 90% 29.65 in 4.0 mi North 17.3 mph 26.5 mph N/A   Overcast
4:14 AM 30.2 °F 18.5 °F 27.9 °F 91% 29.66 in 4.0 mi NNE 17.3 mph 25.3 mph N/A   Overcast
4:34 AM 30.4 °F 18.7 °F 27.5 °F 89% 29.67 in 7.0 mi NNE 17.3 mph 21.9 mph N/A   Overcast
4:54 AM 30.6 °F 20.2 °F 27.3 °F 88% 29.68 in 7.0 mi NNE 13.8 mph 24.2 mph N/A   Overcast
5:14 AM 30.7 °F 19.6 °F 27.0 °F 86% 29.70 in 10.0 mi NNE 16.1 mph 26.5 mph N/A   Overcast
5:34 AM 31.1 °F 19.7 °F 27.0 °F 85% 29.72 in 10.0 mi North 17.3 mph 25.3 mph N/A   Overcast
5:54 AM 30.9 °F 19.8 °F 27.1 °F 86% 29.74 in 10.0 mi North 16.1 mph - N/A   Overcast
6:14 AM 30.9 °F 19.4 °F 27.1 °F 86% 29.76 in 7.0 mi NNE 17.3 mph 24.2 mph N/A   Overcast
6:34 AM 30.7 °F 19.2 °F 27.5 °F 88% 29.77 in 7.0 mi NNE 17.3 mph 21.9 mph N/A   Overcast
6:54 AM 31.1 °F 18.9 °F 27.5 °F 87% 29.79 in 7.0 mi North 19.6 mph 23.0 mph N/A   Overcast
7:14 AM 31.1 °F 20.5 °F 27.5 °F 87% 29.81 in 10.0 mi NNE 15.0 mph 20.7 mph N/A   Overcast
7:34 AM 31.6 °F 21.6 °F 27.5 °F 85% 29.83 in 10.0 mi North 13.8 mph 25.3 mph N/A   Overcast
7:54 AM 31.6 °F 21.2 °F 27.9 °F 86% 29.85 in 10.0 mi NNE 15.0 mph 20.7 mph N/A   Overcast
8:34 AM 31.8 °F 21.4 °F 27.7 °F 85% 29.89 in 10.0 mi NNE 15.0 mph - N/A   Overcast
8:54 AM 32.0 °F 22.5 °F 27.9 °F 85% 29.90 in 10.0 mi NNE 12.7 mph 20.7 mph N/A   Overcast
9:13 AM 32.0 °F 23.0 °F 28.0 °F 85% 29.92 in 10.0 mi NNE 11.5 mph 17.3 mph N/A   Overcast
9:34 AM 32.0 °F 21.6 °F 27.9 °F 85% 29.94 in 10.0 mi North 15.0 mph 18.4 mph N/A   Overcast
9:54 AM 32.4 °F 23.5 °F 27.9 °F 83% 29.95 in 10.0 mi NNE 11.5 mph - N/A   Overcast
10:13 AM 32.5 °F 23.2 °F 28.0 °F 83% 29.96 in 10.0 mi North 12.7 mph 18.4 mph N/A   Overcast
10:34 AM 33.3 °F 24.1 °F 28.2 °F 82% 29.98 in 10.0 mi North 12.7 mph - N/A   Overcast
10:54 AM 33.4 °F 24.8 °F 28.0 °F 81% 30.00 in 10.0 mi North 11.5 mph 16.1 mph N/A   Overcast
11:13 AM 33.3 °F 24.6 °F 28.2 °F 82% 30.01 in 10.0 mi North 11.5 mph - N/A   Overcast
11:34 AM 33.3 °F 25.1 °F 28.4 °F 82% 30.02 in 10.0 mi North 10.4 mph - N/A   Overcast
11:54 AM 33.8 °F 25.3 °F 28.4 °F 81% 30.03 in 7.0 mi North 11.5 mph 16.1 mph N/A   Overcast
12:13 PM 34.3 °F 27.7 °F 28.6 °F 79% 30.04 in 10.0 mi North 8.1 mph - N/A   Overcast
12:34 PM 34.7 °F 27.5 °F 28.6 °F 78% 30.04 in 10.0 mi North 9.2 mph - N/A   Overcast
12:53 PM 34.7 °F 26.4 °F 28.6 °F 78% 30.04 in 10.0 mi NNW 11.5 mph - N/A   Overcast
1:14 PM 34.9 °F 27.1 °F 28.4 °F 77% 30.05 in 10.0 mi NNW 10.4 mph - N/A   Overcast
1:34 PM 34.9 °F 27.7 °F 28.4 °F 77% 30.05 in 10.0 mi NNW 9.2 mph - N/A   Overcast
1:53 PM 35.1 °F 27.9 °F 28.6 °F 77% 30.05 in 10.0 mi North 9.2 mph - N/A   Overcast
2:14 PM 35.1 °F 27.4 °F 28.4 °F 77% 30.07 in 10.0 mi North 10.4 mph - N/A   Overcast
2:34 PM 34.9 °F 27.1 °F 28.0 °F 76% 30.08 in 10.0 mi NNW 10.4 mph - N/A   Overcast
2:53 PM 35.1 °F 26.9 °F 28.2 °F 76% 30.08 in 10.0 mi NNW 11.5 mph 18.4 mph N/A   Overcast
3:14 PM 34.7 °F 26.9 °F 28.2 °F 77% 30.09 in 10.0 mi NNW 10.4 mph - N/A   Overcast
3:34 PM 34.9 °F 27.1 °F 28.4 °F 77% 30.09 in 10.0 mi North 10.4 mph - N/A   Overcast
3:53 PM 34.7 °F 26.9 °F 28.2 °F 77% 30.09 in 10.0 mi North 10.4 mph - N/A   Overcast
4:14 PM 34.7 °F 27.5 °F 28.2 °F 77% 30.10 in 10.0 mi North 9.2 mph - N/A   Overcast
4:34 PM 34.7 °F 27.5 °F 28.2 °F 77% 30.10 in 10.0 mi NNW 9.2 mph - N/A   Overcast
4:53 PM 34.7 °F 27.5 °F 28.2 °F 77% 30.11 in 10.0 mi NNW 9.2 mph - N/A   Overcast
5:14 PM 34.3 °F 27.0 °F 28.2 °F 78% 30.11 in 10.0 mi NNW 9.2 mph - N/A   Overcast
5:34 PM 34.3 °F 28.4 °F 28.2 °F 78% 30.12 in 10.0 mi NNW 6.9 mph - N/A   Overcast
5:53 PM 34.0 °F 26.0 °F 27.9 °F 78% 30.12 in 10.0 mi NNW 10.4 mph - N/A   Overcast
6:14 PM 33.8 °F 26.4 °F 27.9 °F 79% 30.14 in 10.0 mi NNW 9.2 mph - N/A   Overcast
6:34 PM 33.8 °F 27.0 °F 27.7 °F 78% 30.15 in 10.0 mi NNW 8.1 mph - N/A   Overcast
6:53 PM 33.8 °F 27.0 °F 27.5 °F 78% 30.16 in 10.0 mi NNW 8.1 mph - N/A   Overcast
7:14 PM 32.9 °F 24.1 °F 27.0 °F 79% 30.17 in 10.0 mi NW 11.5 mph - N/A   Overcast
7:34 PM 32.4 °F 24.6 °F 26.6 °F 79% 30.17 in 10.0 mi NNW 9.2 mph 16.1 mph N/A   Overcast
7:53 PM 32.2 °F 23.8 °F 26.4 °F 79% 30.18 in 10.0 mi NW 10.4 mph - N/A   Overcast
8:14 PM 32.0 °F 24.8 °F 26.6 °F 80% 30.18 in 10.0 mi NW 8.1 mph - N/A   Overcast
8:34 PM 32.0 °F 24.2 °F 26.1 °F 79% 30.18 in 10.0 mi NW 9.2 mph - N/A   Overcast
9:14 PM 32.0 °F 24.8 °F 26.2 °F 79% 30.19 in 10.0 mi NW 8.1 mph - N/A   Overcast
9:34 PM 32.0 °F 24.2 °F 25.9 °F 78% 30.20 in 10.0 mi WNW 9.2 mph - N/A   Overcast
9:53 PM 32.0 °F 26.4 °F 25.7 °F 78% 30.20 in 10.0 mi NW 5.8 mph - N/A   Overcast
10:14 PM 31.8 °F 25.4 °F 25.5 °F 78% 30.20 in 10.0 mi NW 6.9 mph - N/A   Overcast
10:34 PM 32.0 °F 24.8 °F 25.3 °F 76% 30.20 in 10.0 mi NW 8.1 mph - N/A   Overcast
10:53 PM 31.8 °F 24.6 °F 25.5 °F 78% 30.20 in 10.0 mi NW 8.1 mph - N/A   Overcast
11:14 PM 31.8 °F 25.4 °F 25.3 °F 77% 30.20 in 10.0 mi NW 6.9 mph - N/A   Overcast
11:34 PM 31.6 °F 26.0 °F 25.5 °F 78% 30.20 in 10.0 mi NW 5.8 mph - N/A   Overcast
11:54 PM 31.5 °F 24.2 °F 25.2 °F 78% 30.19 in 10.0 mi NNW 8.1 mph - N/A   Overcast